CDT,Max TemperatureF,Mean TemperatureF,Min TemperatureF,Max Dew PointF,MeanDew PointF,Min DewpointF,Max Humidity, Mean Humidity, Min Humidity, Max Sea Level PressureIn, Mean Sea Level PressureIn, Min Sea Level PressureIn, Max VisibilityMiles, Mean VisibilityMiles, Min VisibilityMiles, Max Wind SpeedMPH, Mean Wind SpeedMPH, Max Gust SpeedMPH,PrecipitationIn, CloudCover, Events, WindDirDegrees
2014-5-1,86,72,59,50,40,32,67,33,14,30.21,30.00,29.60,10,10,8,16,4,,0.00,6,,262
2014-5-2,86,73,60,45,38,32,52,29,14,30.18,29.95,29.62,10,9,8,18,7,,0.00,6,,261
2014-5-3,87,69,51,48,45,39,82,47,19,30.30,30.11,29.72,10,9,8,29,8,40,0.00,6,,80
2014-5-4,89,73,57,50,41,32,67,34,13,30.33,30.12,29.71,10,9,7,12,5,,0.00,3,,194
2014-5-5,91,70,50,50,41,32,76,34,13,30.30,30.08,29.62,10,9,8,12,3,,0.00,4,,302
2014-5-6,91,76,60,48,44,36,59,33,14,30.21,30.02,29.61,10,9,7,16,4,,0.00,6,,177
2014-5-7,75,68,60,59,54,46,83,64,41,30.27,30.06,29.67,10,8,2,100,24,,0.00,7,Rain,267
2014-5-8,73,65,57,59,57,55,100,79,53,30.21,30.07,29.76,8,7,1,10,2,,4.05,8,Rain,129
2014-5-9,87,74,60,57,51,39,82,53,19,30.27,30.05,29.65,10,8,5,8,3,,0.00,6,,188
2014-5-10,89,70,51,54,48,39,100,49,17,30.24,30.00,29.59,10,8,7,12,4,,0.00,2,,246
2014-5-11,91,76,62,55,50,39,77,43,16,30.15,29.92,29.52,10,8,6,15,5,,0.00,2,,243
2014-5-12,93,78,62,57,49,32,77,45,13,30.18,29.96,29.58,10,8,6,8,4,,0.00,2,,267
2014-5-13,91,76,62,55,46,36,68,40,15,30.21,29.96,29.54,10,8,6,14,4,,0.00,4,,269
2014-5-14,84,72,60,54,48,43,72,46,23,30.27,30.03,29.67,10,9,8,18,13,,0.00,2,,46
2014-5-15,82,68,55,46,41,36,67,43,20,30.41,30.18,29.83,10,9,8,22,13,,0.00,2,,53
2014-5-16,87,68,48,48,32,18,71,34,8,30.38,30.15,29.77,10,9,8,17,8,,0.00,1,,68
2014-5-17,89,70,51,46,27,18,47,21,8,30.27,30.04,29.68,10,10,8,14,3,,0.00,2,,131
2014-5-18,91,74,57,32,28,21,33,19,10,30.24,30.00,29.58,10,9,8,17,5,28,0.00,3,,87
2014-5-19,91,73,55,39,30,27,44,20,10,30.26,30.02,29.64,10,9,7,14,5,,0.00,5,,139
2014-5-20,91,73,55,41,34,30,45,25,12,30.27,30.03,29.64,10,9,7,13,5,,0.00,2,,40
2014-5-21,89,73,57,55,40,21,68,34,15,30.27,30.08,29.65,10,8,6,12,4,,0.00,5,Rain,258
2014-5-22,89,76,62,64,51,46,68,50,22,30.26,30.05,29.66,10,8,6,23,5,,0.00,5,Rain,91
2014-5-23,60,,60,50,50,50,68,68,68,30.28,30.10,29.70,10,8,5,9,1,,0.00,6,Rain,15
2014-5-24,62,,62,52,52,52,68,68,68,30.29,30.11,29.68,10,8,6,0,0,,0.00,6,Rain-Thunderstorm,-1
2014-5-25,,,,,,,,,,30.24,30.05,29.67,10,9,5,4,0,,0.00,7,,220
2014-5-26,80,71,62,61,57,52,94,70,37,30.33,30.10,29.75,10,7,4,15,1,,0.00,7,Rain-Thunderstorm,143
2014-5-27,82,70,59,59,56,52,94,67,35,30.36,30.13,29.67,9,7,5,17,3,,0.00,6,Rain,201
2014-5-28,86,74,62,59,54,34,88,61,23,30.27,30.06,29.66,10,9,6,12,1,,0.00,6,,174
2014-5-29,84,70,57,61,57,52,88,70,33,30.24,30.04,29.66,10,9,1,17,6,29,0.00,7,Rain,147
2014-5-30,80,71,62,61,59,46,94,79,45,30.18,30.03,29.63,10,7,1,14,3,,0.00,7,Rain,352
2014-5-31,87,74,60,61,53,45,94,54,22,30.21,30.00,29.65,10,9,5,14,4,,0.00,3,,43